createdAt,value
2023-05-05T00:01:04.094Z,72.17
2023-05-05T00:03:34.305Z,72.60
2023-05-05T00:06:03.155Z,72.76
2023-05-05T00:08:32.143Z,73.08
2023-05-05T00:11:00.840Z,73.97
2023-05-05T00:13:29.525Z,74.85
2023-05-05T00:15:58.277Z,75.30
2023-05-05T00:18:29.580Z,75.14
2023-05-05T00:20:58.290Z,74.78
2023-05-05T00:23:27.104Z,74.06
2023-05-05T00:25:56.007Z,73.83
2023-05-05T00:28:24.994Z,73.52
2023-05-05T00:30:53.723Z,73.92
2023-05-05T00:33:22.493Z,73.49
2023-05-05T00:35:52.714Z,74.23
2023-05-05T00:38:21.496Z,73.36
2023-05-05T00:40:50.294Z,74.06
2023-05-05T00:43:19.047Z,75.68
2023-05-05T00:45:48.202Z,74.93
2023-05-05T00:48:18.943Z,76.23
2023-05-05T00:50:47.724Z,76.91
2023-05-05T00:53:17.842Z,77.16
2023-05-05T00:55:46.654Z,76.54
2023-05-05T00:58:15.535Z,77.32
2023-05-05T01:00:44.570Z,77.44
2023-05-05T01:03:15.454Z,77.46
2023-05-05T01:05:54.112Z,77.45
2023-05-05T01:08:43.216Z,76.97
2023-05-05T01:11:18.238Z,77.09
2023-05-05T01:13:58.067Z,77.32
2023-05-05T01:16:28.784Z,77.64
2023-05-05T01:19:05.844Z,77.26
2023-05-05T01:21:40.212Z,77.85
2023-05-05T01:24:44.956Z,77.66
2023-05-05T01:27:41.024Z,78.80
2023-05-05T01:30:26.798Z,81.27
2023-05-05T01:33:05.015Z,81.50
2023-05-05T01:35:41.617Z,82.57
2023-05-05T01:38:16.274Z,82.19
2023-05-05T01:40:49.204Z,83.45
2023-05-05T01:43:21.349Z,87.00
2023-05-05T01:45:52.703Z,86.46
2023-05-05T01:48:26.386Z,86.55
2023-05-05T01:50:55.359Z,86.75
2023-05-05T01:53:27.437Z,86.44
2023-05-05T01:55:57.645Z,86.86
2023-05-05T01:58:27.824Z,86.98
2023-05-05T02:00:58.895Z,87.24
2023-05-05T02:03:31.469Z,86.72
2023-05-05T02:06:02.033Z,87.19
2023-05-05T02:08:32.612Z,87.49
2023-05-05T02:11:02.474Z,87.45
2023-05-05T02:13:33.469Z,87.51
2023-05-05T02:16:04.210Z,87.57
2023-05-05T02:18:36.683Z,88.16
2023-05-05T02:21:05.852Z,87.75
2023-05-05T02:23:36.310Z,88.70
2023-05-05T02:26:08.882Z,88.61
2023-05-05T02:28:42.129Z,88.37
2023-05-05T02:31:13.333Z,88.50
2023-05-05T02:33:46.899Z,88.56
2023-05-05T02:36:20.361Z,89.11
2023-05-05T02:39:00.213Z,89.10
2023-05-05T02:41:32.535Z,89.11
2023-05-05T02:44:08.390Z,88.95
2023-05-05T02:46:39.865Z,88.87
2023-05-05T02:49:10.070Z,88.24
2023-05-05T02:51:40.584Z,88.12
2023-05-05T02:54:17.591Z,88.19
2023-05-05T02:56:50.972Z,88.82
2023-05-05T02:59:32.056Z,87.97
2023-05-05T03:02:15.188Z,88.77
2023-05-05T03:04:49.703Z,88.11
2023-05-05T03:07:27.577Z,87.57
2023-05-05T03:10:06.228Z,89.98
2023-05-05T03:12:45.328Z,89.98
2023-05-05T03:15:26.425Z,88.92
2023-05-05T03:17:57.618Z,89.42
2023-05-05T03:20:28.480Z,90.60
2023-05-05T03:23:01.997Z,91.99
2023-05-05T03:25:44.165Z,92.24
2023-05-05T03:28:17.377Z,93.70
2023-05-05T03:30:46.529Z,95.66
2023-05-05T03:33:17.983Z,95.75
2023-05-05T03:35:51.050Z,97.32
2023-05-05T03:38:21.894Z,97.34
2023-05-05T03:40:51.937Z,97.72
2023-05-05T03:43:23.531Z,99.19
2023-05-05T03:45:52.369Z,99.28
2023-05-05T03:48:21.531Z,98.90
2023-05-05T03:50:54.011Z,100.00
2023-05-05T03:53:26.647Z,100.00
2023-05-05T03:55:58.997Z,100.00
2023-05-05T03:58:28.044Z,100.00
2023-05-05T04:00:56.858Z,100.00
2023-05-05T04:03:26.606Z,100.00
2023-05-05T04:05:56.898Z,99.31
2023-05-05T04:08:26.032Z,98.81
2023-05-05T04:10:54.797Z,97.81
2023-05-05T04:13:24.411Z,97.60
2023-05-05T04:15:53.765Z,97.49
2023-05-05T04:18:23.200Z,96.77
2023-05-05T04:20:52.561Z,95.69
2023-05-05T04:23:23.087Z,95.76
2023-05-05T04:25:52.361Z,94.47
2023-05-05T04:28:22.129Z,93.56
2023-05-05T04:30:51.387Z,93.78
2023-05-05T04:33:20.469Z,92.97
2023-05-05T04:35:51.090Z,92.65
2023-05-05T04:38:22.503Z,92.11
2023-05-05T04:40:51.287Z,91.64
2023-05-05T04:43:20.198Z,91.25
2023-05-05T04:45:55.242Z,91.53
2023-05-05T04:48:27.082Z,89.47
2023-05-05T04:50:55.906Z,87.74
2023-05-05T04:53:26.471Z,86.01
2023-05-05T04:55:56.206Z,84.65
2023-05-05T04:58:26.814Z,84.82
2023-05-05T05:01:08.190Z,82.73
2023-05-05T05:04:33.605Z,78.14
2023-05-05T05:07:45.942Z,75.91
2023-05-05T05:10:22.857Z,74.80
2023-05-05T05:13:04.245Z,73.79
2023-05-05T05:15:37.566Z,74.39
2023-05-05T05:18:21.911Z,72.32
2023-05-05T05:20:54.127Z,74.01
2023-05-05T05:23:53.365Z,73.64
2023-05-05T05:26:26.705Z,72.36
2023-05-05T05:29:00.133Z,72.92
2023-05-05T05:31:36.746Z,74.22
2023-05-05T05:34:05.864Z,74.97
2023-05-05T05:36:36.892Z,75.85
2023-05-05T05:39:11.209Z,75.32
2023-05-05T05:41:41.937Z,75.63
2023-05-05T05:44:11.022Z,75.87
2023-05-05T05:46:40.158Z,75.69
2023-05-05T05:49:09.136Z,75.05
2023-05-05T05:51:38.417Z,75.07
2023-05-05T05:54:07.289Z,73.61
2023-05-05T05:56:36.408Z,71.70
2023-05-05T05:59:08.128Z,70.81
2023-05-05T06:01:37.947Z,69.06
2023-05-05T06:04:06.906Z,68.17
2023-05-05T06:06:35.941Z,66.81
2023-05-05T06:09:04.925Z,67.20
2023-05-05T06:11:38.195Z,68.19
2023-05-05T06:14:11.565Z,69.27
2023-05-05T06:16:40.602Z,69.73
2023-05-05T06:19:13.912Z,70.47
2023-05-05T06:21:42.692Z,70.72
2023-05-05T06:24:11.960Z,68.97
2023-05-05T06:26:40.845Z,68.58
2023-05-05T06:29:12.355Z,67.62
2023-05-05T06:31:41.273Z,66.23
2023-05-05T06:34:10.041Z,64.73
2023-05-05T06:36:38.825Z,61.04
2023-05-05T06:39:07.798Z,61.75
2023-05-05T06:41:36.668Z,61.13
2023-05-05T06:44:06.014Z,59.11
2023-05-05T06:46:36.385Z,56.56
2023-05-05T06:49:05.156Z,56.96
2023-05-05T06:51:33.932Z,57.08
2023-05-05T06:54:02.677Z,54.17
2023-05-05T06:56:32.693Z,54.09
2023-05-05T06:59:01.572Z,54.84
2023-05-05T07:01:30.244Z,56.03
2023-05-05T07:04:00.393Z,56.69
2023-05-05T07:06:29.337Z,57.87
2023-05-05T07:08:58.038Z,58.26
2023-05-05T07:11:26.797Z,58.48
2023-05-05T07:13:55.538Z,57.76
2023-05-05T07:16:25.442Z,55.84
2023-05-05T07:18:54.227Z,56.29
2023-05-05T07:21:24.373Z,56.99
2023-05-05T07:23:53.490Z,57.62
2023-05-05T07:26:22.229Z,56.70
2023-05-05T07:28:52.031Z,56.51
2023-05-05T07:31:21.979Z,55.35
2023-05-05T07:33:50.770Z,54.69
2023-05-05T07:36:19.867Z,54.72
2023-05-05T07:38:49.963Z,53.86
2023-05-05T07:41:19.324Z,52.67
2023-05-05T07:43:48.063Z,51.54
2023-05-05T07:46:16.874Z,51.67
2023-05-05T07:48:45.716Z,50.94
2023-05-05T07:51:14.408Z,51.77
2023-05-05T07:53:43.363Z,50.48
2023-05-05T07:56:13.470Z,50.57
2023-05-05T07:58:42.236Z,50.22
2023-05-05T08:01:12.810Z,50.49
2023-05-05T08:03:41.746Z,50.14
2023-05-05T08:06:11.394Z,49.21
2023-05-05T08:08:40.204Z,49.28
2023-05-05T08:11:08.935Z,50.21
2023-05-05T08:13:39.262Z,49.46
2023-05-05T08:16:08.608Z,50.36
2023-05-05T08:18:38.440Z,50.23
2023-05-05T08:21:07.708Z,50.18
2023-05-05T08:23:37.669Z,49.04
2023-05-05T08:26:07.757Z,49.33
2023-05-05T08:28:38.217Z,48.85
2023-05-05T08:31:07.832Z,49.54
2023-05-05T08:33:36.579Z,49.16
2023-05-05T08:36:05.867Z,48.76
2023-05-05T08:38:34.653Z,48.26
2023-05-05T08:41:03.994Z,48.57
2023-05-05T08:43:33.941Z,47.69
2023-05-05T08:46:05.624Z,47.10
2023-05-05T08:48:37.856Z,47.39
2023-05-05T08:51:08.152Z,47.07
2023-05-05T08:53:47.801Z,46.32
2023-05-05T08:56:17.338Z,46.07
2023-05-05T08:58:48.314Z,46.09
2023-05-05T09:01:19.175Z,45.77
2023-05-05T09:03:48.179Z,45.95
2023-05-05T09:06:17.119Z,45.57
2023-05-05T09:08:46.314Z,44.38
2023-05-05T09:11:15.534Z,44.30
2023-05-05T09:13:44.628Z,44.39
2023-05-05T09:16:13.486Z,44.21
2023-05-05T09:18:45.525Z,43.94
2023-05-05T09:21:24.735Z,44.29
2023-05-05T09:24:12.818Z,45.01
2023-05-05T09:26:44.863Z,44.75
2023-05-05T09:29:19.692Z,43.47
2023-05-05T09:32:05.613Z,43.35
2023-05-05T09:34:37.180Z,43.93
2023-05-05T09:37:06.404Z,43.12
2023-05-05T09:39:35.288Z,43.27
2023-05-05T09:42:04.542Z,43.21
2023-05-05T09:44:37.754Z,42.36
2023-05-05T09:47:18.171Z,42.72
2023-05-05T09:50:02.732Z,41.80
2023-05-05T09:52:32.055Z,41.35
2023-05-05T09:55:00.860Z,40.75
2023-05-05T09:57:31.652Z,40.65
2023-05-05T10:00:01.820Z,40.21
2023-05-05T10:02:37.692Z,39.61
2023-05-05T10:05:11.123Z,39.71
2023-05-05T10:07:41.302Z,40.93
2023-05-05T10:10:12.388Z,40.75
2023-05-05T10:12:42.204Z,39.53
2023-05-05T10:15:12.445Z,39.54
2023-05-05T10:18:02.278Z,39.65
2023-05-05T10:20:34.245Z,39.81
2023-05-05T10:23:09.229Z,40.05
2023-05-05T10:25:44.749Z,39.30
2023-05-05T10:28:22.260Z,39.98
2023-05-05T10:30:57.915Z,39.09
2023-05-05T10:33:37.392Z,39.64
2023-05-05T10:36:08.412Z,39.27
2023-05-05T10:38:38.508Z,38.37
2023-05-05T10:41:07.917Z,38.64
2023-05-05T10:43:37.079Z,38.24
2023-05-05T10:46:06.662Z,37.99
2023-05-05T10:48:40.891Z,37.99
2023-05-05T10:51:38.525Z,38.40
2023-05-05T10:54:18.097Z,37.85
2023-05-05T10:56:48.179Z,36.51
2023-05-05T10:59:42.719Z,36.19
2023-05-05T11:02:26.382Z,36.74
2023-05-05T11:05:12.266Z,35.93
2023-05-05T11:07:43.275Z,36.36
2023-05-05T11:10:14.052Z,37.16
2023-05-05T11:13:21.169Z,36.88
2023-05-05T11:15:52.139Z,36.46
2023-05-05T11:18:33.964Z,36.28
2023-05-05T11:21:16.953Z,33.73
2023-05-05T11:23:49.138Z,34.82
2023-05-05T11:26:19.553Z,35.16
2023-05-05T11:29:00.566Z,34.69
2023-05-05T11:31:30.657Z,34.63
2023-05-05T11:34:36.149Z,35.12
2023-05-05T11:37:08.908Z,33.23
2023-05-05T11:39:51.083Z,33.51
2023-05-05T11:42:25.761Z,33.22
2023-05-05T11:44:55.430Z,33.93
2023-05-05T11:47:32.182Z,34.36
2023-05-05T11:50:21.692Z,33.04
2023-05-05T11:52:50.730Z,33.15
2023-05-05T11:55:24.582Z,32.08
2023-05-05T11:57:54.176Z,33.27
2023-05-05T12:00:33.883Z,33.66
2023-05-05T12:03:03.251Z,33.16
2023-05-05T12:05:34.843Z,32.82
2023-05-05T12:08:05.577Z,32.79
2023-05-05T12:10:35.770Z,33.25
2023-05-05T12:13:04.542Z,32.84
2023-05-05T12:15:34.291Z,33.31
2023-05-05T12:18:03.562Z,33.62
2023-05-05T12:20:36.822Z,31.02
2023-05-05T12:23:05.637Z,31.20
2023-05-05T12:25:39.931Z,30.35
2023-05-05T12:28:09.787Z,30.93
2023-05-05T12:30:38.760Z,30.63
2023-05-05T12:33:09.298Z,30.76
2023-05-05T12:35:38.268Z,31.32
2023-05-05T12:38:07.465Z,31.44
2023-05-05T12:40:52.946Z,31.17
2023-05-05T12:43:27.165Z,30.95
2023-05-05T12:46:07.242Z,31.19
2023-05-05T12:48:38.171Z,32.28
2023-05-05T12:51:17.789Z,32.01
2023-05-05T12:53:47.549Z,32.39
2023-05-05T12:56:37.558Z,33.41
2023-05-05T12:59:07.812Z,32.97
2023-05-05T13:01:37.860Z,32.91
2023-05-05T13:04:14.422Z,32.56
2023-05-05T13:06:44.252Z,31.79
2023-05-05T13:09:25.268Z,32.18
2023-05-05T13:11:55.687Z,32.03
2023-05-05T13:14:24.930Z,31.68
2023-05-05T13:16:54.009Z,30.84
2023-05-05T13:19:24.899Z,30.98
2023-05-05T13:21:53.942Z,31.26
2023-05-05T13:24:31.602Z,32.06
2023-05-05T13:27:05.660Z,31.85
2023-05-05T13:29:34.545Z,32.13
2023-05-05T13:32:03.411Z,32.51
2023-05-05T13:34:32.188Z,32.12
2023-05-05T13:37:00.983Z,32.19
2023-05-05T13:39:29.730Z,32.37
2023-05-05T13:41:58.483Z,32.62
2023-05-05T13:44:28.608Z,32.58
2023-05-05T13:46:57.719Z,32.14
2023-05-05T13:49:27.117Z,32.47
2023-05-05T13:51:56.305Z,32.10
2023-05-05T13:54:25.295Z,32.67
2023-05-05T13:56:54.148Z,32.78
2023-05-05T13:59:23.062Z,32.79
2023-05-05T14:01:53.229Z,32.68
2023-05-05T14:04:22.092Z,33.03
2023-05-05T14:06:50.936Z,32.97
2023-05-05T14:09:19.759Z,33.32
2023-05-05T14:11:48.542Z,32.61
2023-05-05T14:14:17.941Z,32.59
2023-05-05T14:16:49.870Z,33.04
2023-05-05T14:19:20.420Z,32.83
2023-05-05T14:21:49.188Z,32.39
2023-05-05T14:24:17.973Z,32.02
2023-05-05T14:26:46.826Z,31.92
2023-05-05T14:29:15.577Z,31.98
2023-05-05T14:31:44.343Z,31.85
2023-05-05T14:34:13.100Z,31.55
2023-05-05T14:36:43.221Z,31.61
2023-05-05T14:39:11.956Z,31.08
2023-05-05T14:41:40.751Z,31.26
2023-05-05T14:44:09.828Z,30.15
2023-05-05T14:46:38.882Z,30.02
2023-05-05T14:49:07.642Z,30.32
2023-05-05T14:51:36.455Z,30.93
2023-05-05T14:54:14.288Z,31.18
2023-05-05T14:56:49.509Z,31.07
2023-05-05T14:59:18.482Z,31.30
2023-05-05T15:01:48.245Z,31.63
2023-05-05T15:04:17.079Z,32.13
2023-05-05T15:06:45.899Z,31.99
2023-05-05T15:09:18.092Z,32.10
2023-05-05T15:11:47.234Z,32.09
2023-05-05T15:14:16.070Z,32.25
2023-05-05T15:16:46.716Z,31.46
2023-05-05T15:19:15.578Z,31.68
2023-05-05T15:21:44.324Z,31.58
2023-05-05T15:24:16.322Z,30.96
2023-05-05T15:26:45.096Z,31.91
2023-05-05T15:29:13.993Z,32.51
2023-05-05T15:31:43.382Z,33.02
2023-05-05T15:34:12.174Z,33.52
2023-05-05T15:36:40.978Z,34.13
2023-05-05T15:39:09.812Z,34.32
2023-05-05T15:41:40.046Z,32.60
2023-05-05T15:44:09.045Z,32.23
2023-05-05T15:46:37.960Z,33.24
2023-05-05T15:49:06.797Z,33.88
2023-05-05T15:51:35.833Z,34.01
2023-05-05T15:54:04.695Z,34.67
2023-05-05T15:56:35.600Z,34.80
2023-05-05T15:59:07.693Z,34.78
2023-05-05T16:01:36.920Z,34.87
2023-05-05T16:04:06.993Z,34.12
2023-05-05T16:06:35.888Z,34.73
2023-05-05T16:09:04.825Z,34.61
2023-05-05T16:11:33.618Z,34.44
2023-05-05T16:14:02.368Z,34.62
2023-05-05T16:16:32.631Z,35.27
2023-05-05T16:19:01.533Z,35.53
2023-05-05T16:21:30.333Z,35.89
2023-05-05T16:23:59.187Z,36.26
2023-05-05T16:26:27.948Z,36.48
2023-05-05T16:28:56.658Z,36.61
2023-05-05T16:31:29.794Z,36.50
2023-05-05T16:34:01.771Z,35.95
2023-05-05T16:36:39.484Z,35.77
2023-05-05T16:39:08.372Z,36.07
2023-05-05T16:41:37.241Z,36.25
2023-05-05T16:44:06.182Z,36.93
2023-05-05T16:46:37.533Z,37.15
2023-05-05T16:49:08.520Z,38.03
2023-05-05T16:51:37.264Z,38.31
2023-05-05T16:54:06.107Z,38.39
2023-05-05T16:56:34.889Z,38.22
2023-05-05T16:59:03.653Z,38.10
2023-05-05T17:01:32.527Z,38.03
2023-05-05T17:04:03.781Z,38.25
2023-05-05T17:06:50.764Z,38.82
2023-05-05T17:09:40.231Z,39.39
2023-05-05T17:12:11.650Z,40.39
2023-05-05T17:14:54.146Z,40.80
2023-05-05T17:17:33.501Z,40.87
2023-05-05T17:20:07.697Z,41.43
2023-05-05T17:22:41.107Z,41.10
2023-05-05T17:25:11.888Z,41.27
2023-05-05T17:27:42.799Z,42.29
2023-05-05T17:30:12.403Z,42.53
2023-05-05T17:32:43.184Z,43.24
2023-05-05T17:35:12.704Z,43.30
2023-05-05T17:37:45.166Z,43.43
2023-05-05T17:40:14.305Z,43.83
2023-05-05T17:42:47.643Z,44.37
2023-05-05T17:45:16.564Z,44.89
2023-05-05T17:47:45.641Z,45.21
2023-05-05T17:50:14.592Z,45.28
2023-05-05T17:52:47.673Z,45.60
2023-05-05T17:55:16.424Z,45.81
2023-05-05T17:58:13.340Z,46.39
2023-05-05T18:00:42.518Z,46.88
2023-05-05T18:03:13.446Z,47.04
2023-05-05T18:05:42.325Z,47.41
2023-05-05T18:08:15.101Z,47.55
2023-05-05T18:10:44.281Z,47.31
2023-05-05T18:13:14.943Z,47.85
2023-05-05T18:15:43.979Z,48.05
2023-05-05T18:18:13.030Z,48.01
2023-05-05T18:20:58.084Z,48.64
2023-05-05T18:23:28.508Z,49.00
2023-05-05T18:26:01.788Z,49.34
2023-05-05T18:28:40.876Z,49.38
2023-05-05T18:31:12.020Z,49.37
2023-05-05T18:33:40.898Z,49.51
2023-05-05T18:36:11.453Z,49.65
2023-05-05T18:38:41.728Z,49.40
2023-05-05T18:41:10.911Z,49.81
2023-05-05T18:43:39.735Z,49.93
2023-05-05T18:46:08.942Z,50.09
2023-05-05T18:48:37.850Z,50.22
2023-05-05T18:51:07.490Z,50.04
2023-05-05T18:53:36.334Z,50.18
2023-05-05T18:56:06.627Z,50.26
2023-05-05T18:58:35.525Z,50.71
2023-05-05T19:01:04.391Z,51.12
2023-05-05T19:03:33.792Z,51.37
2023-05-05T19:06:06.262Z,52.11
2023-05-05T19:08:35.268Z,52.14
2023-05-05T19:11:05.487Z,52.24
2023-05-05T19:13:34.465Z,53.28
2023-05-05T19:16:03.626Z,53.77
2023-05-05T19:18:32.877Z,53.76
2023-05-05T19:21:01.844Z,54.42
2023-05-05T19:23:30.973Z,54.93
2023-05-05T19:25:59.797Z,55.38
2023-05-05T19:28:30.051Z,55.77
2023-05-05T19:30:59.055Z,56.18
2023-05-05T19:33:27.956Z,56.54
2023-05-05T19:35:56.830Z,57.10
2023-05-05T19:38:25.719Z,57.00
2023-05-05T19:40:55.226Z,57.68
2023-05-05T19:43:24.024Z,57.83
2023-05-05T19:45:54.328Z,58.27
2023-05-05T19:48:23.325Z,58.54
2023-05-05T19:50:52.926Z,58.75
2023-05-05T19:53:21.686Z,58.63
2023-05-05T19:55:50.651Z,59.15
2023-05-05T19:58:19.355Z,59.62
2023-05-05T20:00:48.133Z,59.79
2023-05-05T20:03:18.462Z,60.12
2023-05-05T20:05:47.283Z,59.95
2023-05-05T20:08:16.028Z,60.29
2023-05-05T20:10:44.878Z,60.50
2023-05-05T20:13:13.761Z,60.85
2023-05-05T20:15:42.622Z,60.99
2023-05-05T20:18:11.331Z,61.14
2023-05-05T20:20:41.521Z,61.04
2023-05-05T20:23:10.276Z,60.91
2023-05-05T20:25:39.040Z,60.73
2023-05-05T20:28:07.831Z,60.84
2023-05-05T20:30:36.660Z,60.99
2023-05-05T20:33:05.724Z,60.90
2023-05-05T20:35:34.551Z,61.41
2023-05-05T20:38:04.832Z,61.16
2023-05-05T20:40:34.418Z,61.62
2023-05-05T20:43:03.300Z,61.57
2023-05-05T20:45:34.684Z,61.56
2023-05-05T20:48:04.584Z,61.37
2023-05-05T20:50:33.850Z,61.36
2023-05-05T20:53:05.312Z,61.89
2023-05-05T20:55:34.187Z,62.05
2023-05-05T20:58:03.462Z,62.33
2023-05-05T21:00:32.213Z,63.51
2023-05-05T21:03:02.597Z,63.88
2023-05-05T21:05:32.243Z,64.27
2023-05-05T21:08:01.440Z,65.83
2023-05-05T21:10:33.276Z,66.61
2023-05-05T21:13:03.700Z,69.54
2023-05-05T21:15:33.292Z,70.05
2023-05-05T21:18:03.725Z,71.69
2023-05-05T21:20:32.515Z,73.37
2023-05-05T21:23:01.237Z,70.78
2023-05-05T21:25:31.965Z,71.93
2023-05-05T21:28:00.692Z,70.74
2023-05-05T21:30:30.177Z,71.10
2023-05-05T21:32:59.267Z,72.78
2023-05-05T21:35:28.238Z,75.64
2023-05-05T21:37:57.013Z,76.54
2023-05-05T21:40:25.793Z,78.23
2023-05-05T21:42:56.116Z,78.93
2023-05-05T21:45:25.460Z,80.46
2023-05-05T21:47:54.199Z,81.28
2023-05-05T21:50:23.307Z,80.50
2023-05-05T21:52:52.627Z,79.47
2023-05-05T21:55:21.450Z,79.12
2023-05-05T21:57:50.296Z,79.87
2023-05-05T22:00:20.554Z,79.85
2023-05-05T22:02:49.444Z,79.57
2023-05-05T22:05:18.376Z,80.07
2023-05-05T22:07:47.118Z,79.37
2023-05-05T22:10:16.723Z,79.27
2023-05-05T22:12:45.488Z,80.52
2023-05-05T22:15:14.485Z,80.59
2023-05-05T22:17:44.751Z,82.76
2023-05-05T22:20:15.601Z,86.29
2023-05-05T22:22:46.653Z,84.71
2023-05-05T22:25:15.638Z,85.67
2023-05-05T22:27:44.505Z,85.73
2023-05-05T22:30:14.503Z,86.74
2023-05-05T22:32:46.641Z,86.35
2023-05-05T22:35:15.597Z,86.67
2023-05-05T22:37:44.484Z,86.30
2023-05-05T22:40:13.953Z,87.25
2023-05-05T22:42:42.842Z,88.30
2023-05-05T22:45:12.411Z,88.14
2023-05-05T22:47:41.306Z,88.85
2023-05-05T22:50:12.311Z,91.31
2023-05-05T22:52:41.141Z,92.31
2023-05-05T22:55:13.807Z,93.13
2023-05-05T22:57:43.041Z,94.89
2023-05-05T23:00:12.570Z,94.71
2023-05-05T23:02:41.682Z,95.65
2023-05-05T23:05:14.601Z,98.06
2023-05-05T23:07:43.391Z,98.27
2023-05-05T23:10:12.404Z,97.97
2023-05-05T23:12:41.225Z,100.00
2023-05-05T23:15:11.215Z,99.21
2023-05-05T23:17:40.305Z,100.00
2023-05-05T23:20:15.265Z,100.00
2023-05-05T23:22:44.059Z,100.00
2023-05-05T23:25:13.013Z,100.00
2023-05-05T23:27:42.016Z,100.00
2023-05-05T23:30:11.814Z,100.00
2023-05-05T23:32:40.902Z,100.00
2023-05-05T23:35:11.862Z,100.00
2023-05-05T23:37:42.482Z,100.00
2023-05-05T23:40:11.732Z,100.00
2023-05-05T23:42:40.455Z,100.00
2023-05-05T23:45:18.678Z,100.00
2023-05-05T23:47:48.239Z,100.00
2023-05-05T23:50:18.441Z,100.00
2023-05-05T23:52:48.469Z,100.00
2023-05-05T23:55:17.214Z,100.00
2023-05-05T23:57:46.003Z,100.00
